createdAt,value
2022-09-28T00:00:48.063Z,79.66
2022-09-28T00:03:14.866Z,79.76
2022-09-28T00:05:41.735Z,80.05
2022-09-28T00:08:08.554Z,79.86
2022-09-28T00:10:35.284Z,79.97
2022-09-28T00:13:02.080Z,79.93
2022-09-28T00:15:29.373Z,80.41
2022-09-28T00:17:56.227Z,80.73
2022-09-28T00:20:23.071Z,81.11
2022-09-28T00:22:50.012Z,81.25
2022-09-28T00:25:17.230Z,81.50
2022-09-28T00:27:49.489Z,81.96
2022-09-28T00:30:16.610Z,82.25
2022-09-28T00:32:44.560Z,82.27
2022-09-28T00:35:11.913Z,82.50
2022-09-28T00:37:42.185Z,82.96
2022-09-28T00:40:18.683Z,83.05
2022-09-28T00:42:46.213Z,83.06
2022-09-28T00:45:14.439Z,83.02
2022-09-28T00:47:43.983Z,82.65
2022-09-28T00:50:23.423Z,82.84
2022-09-28T00:53:18.155Z,83.07
2022-09-28T00:55:45.932Z,83.38
2022-09-28T00:58:20.963Z,83.41
2022-09-28T01:00:49.730Z,83.38
2022-09-28T01:03:17.856Z,83.38
2022-09-28T01:05:47.412Z,83.41
2022-09-28T01:08:17.084Z,83.94
2022-09-28T01:10:44.091Z,83.87
2022-09-28T01:13:13.060Z,83.58
2022-09-28T01:16:04.749Z,83.68
2022-09-28T01:18:44.267Z,83.87
2022-09-28T01:21:15.364Z,83.89
2022-09-28T01:23:54.904Z,83.99
2022-09-28T01:26:48.089Z,84.06
2022-09-28T01:29:40.386Z,84.17
2022-09-28T01:32:19.078Z,84.23
2022-09-28T01:34:57.740Z,84.62
2022-09-28T01:37:36.293Z,84.44
2022-09-28T01:40:07.320Z,84.24
2022-09-28T01:42:38.084Z,84.37
2022-09-28T01:45:10.765Z,84.05
2022-09-28T01:47:41.085Z,84.07
2022-09-28T01:50:16.458Z,84.11
2022-09-28T01:52:54.788Z,83.99
2022-09-28T01:55:37.638Z,83.76
2022-09-28T01:58:19.010Z,84.09
2022-09-28T02:00:54.021Z,83.88
2022-09-28T02:03:43.165Z,83.44
2022-09-28T02:06:18.100Z,83.43
2022-09-28T02:09:13.507Z,83.45
2022-09-28T02:11:49.039Z,83.31
2022-09-28T02:14:18.376Z,83.09
2022-09-28T02:16:49.434Z,83.22
2022-09-28T02:19:19.810Z,83.47
2022-09-28T02:22:00.262Z,83.24
2022-09-28T02:24:42.887Z,82.75
2022-09-28T02:27:21.925Z,82.89
2022-09-28T02:29:49.734Z,83.19
2022-09-28T02:32:19.848Z,83.20
2022-09-28T02:34:47.078Z,83.27
2022-09-28T02:37:13.956Z,83.41
2022-09-28T02:39:40.832Z,83.24
2022-09-28T02:42:24.284Z,83.08
2022-09-28T02:45:09.195Z,82.81
2022-09-28T02:47:50.820Z,83.05
2022-09-28T02:50:20.577Z,83.16
2022-09-28T02:53:26.492Z,83.23
2022-09-28T02:56:30.759Z,83.14
2022-09-28T02:59:20.050Z,83.48
2022-09-28T03:01:53.983Z,83.45
2022-09-28T03:04:39.707Z,83.53
2022-09-28T03:07:15.414Z,83.48
2022-09-28T03:09:55.712Z,83.39
2022-09-28T03:12:24.830Z,83.41
2022-09-28T03:15:14.418Z,82.92
2022-09-28T03:17:41.696Z,82.98
2022-09-28T03:20:10.359Z,83.10
2022-09-28T03:22:38.075Z,83.12
2022-09-28T03:25:06.853Z,83.64
2022-09-28T03:27:34.830Z,83.45
2022-09-28T03:30:02.132Z,83.63
2022-09-28T03:32:29.415Z,83.60
2022-09-28T03:34:56.259Z,83.63
2022-09-28T03:37:23.494Z,83.37
2022-09-28T03:39:50.402Z,83.41
2022-09-28T03:42:17.227Z,83.39
2022-09-28T03:44:46.832Z,83.40
2022-09-28T03:47:14.338Z,83.53
2022-09-28T03:49:41.043Z,83.65
2022-09-28T03:52:09.037Z,83.64
2022-09-28T03:54:37.853Z,83.54
2022-09-28T03:57:05.156Z,83.86
2022-09-28T03:59:32.136Z,84.05
2022-09-28T04:01:59.035Z,83.98
2022-09-28T04:04:25.786Z,84.06
2022-09-28T04:06:52.483Z,83.88
2022-09-28T04:09:19.472Z,83.88
2022-09-28T04:12:02.820Z,84.06
2022-09-28T04:14:30.085Z,83.93
2022-09-28T04:16:57.001Z,83.71
2022-09-28T04:19:26.875Z,83.36
2022-09-28T04:22:09.365Z,83.45
2022-09-28T04:24:36.227Z,83.49
2022-09-28T04:27:21.572Z,83.85
2022-09-28T04:29:49.001Z,83.79
2022-09-28T04:32:16.659Z,83.71
2022-09-28T04:34:44.424Z,83.91
2022-09-28T04:37:12.344Z,83.99
2022-09-28T04:39:43.948Z,83.90
2022-09-28T04:42:13.625Z,84.06
2022-09-28T04:44:40.565Z,84.13
2022-09-28T04:47:09.133Z,84.21
2022-09-28T04:50:07.720Z,84.11
2022-09-28T04:52:37.974Z,84.20
2022-09-28T04:55:06.525Z,84.02
2022-09-28T04:57:35.766Z,84.22
2022-09-28T05:00:03.121Z,84.17
2022-09-28T05:02:31.597Z,84.17
2022-09-28T05:05:30.943Z,84.19
2022-09-28T05:08:20.940Z,84.18
2022-09-28T05:10:47.798Z,84.35
2022-09-28T05:13:17.549Z,84.48
2022-09-28T05:15:44.311Z,84.39
2022-09-28T05:18:11.157Z,84.11
2022-09-28T05:20:47.913Z,84.12
2022-09-28T05:23:15.757Z,84.15
2022-09-28T05:25:45.575Z,84.20
2022-09-28T05:28:28.700Z,84.32
2022-09-28T05:31:14.934Z,84.21
2022-09-28T05:34:00.750Z,84.12
2022-09-28T05:36:28.221Z,84.11
2022-09-28T05:38:55.097Z,83.72
2022-09-28T05:41:21.923Z,83.78
2022-09-28T05:43:48.836Z,83.82
2022-09-28T05:46:15.745Z,83.46
2022-09-28T05:48:42.721Z,83.66
2022-09-28T05:51:10.428Z,83.48
2022-09-28T05:53:37.323Z,83.37
2022-09-28T05:56:04.751Z,83.69
2022-09-28T05:58:33.103Z,83.56
2022-09-28T06:01:00.006Z,83.69
2022-09-28T06:03:27.466Z,83.44
2022-09-28T06:05:54.503Z,83.22
2022-09-28T06:08:21.981Z,83.25
2022-09-28T06:11:00.796Z,83.04
2022-09-28T06:13:28.389Z,82.64
2022-09-28T06:15:55.164Z,82.70
2022-09-28T06:18:21.914Z,82.54
2022-09-28T06:21:11.034Z,82.50
2022-09-28T06:23:48.155Z,82.47
2022-09-28T06:26:17.037Z,82.33
2022-09-28T06:28:44.813Z,82.17
2022-09-28T06:31:12.386Z,81.94
2022-09-28T06:33:49.121Z,82.25
2022-09-28T06:36:17.519Z,82.45
2022-09-28T06:38:45.284Z,82.31
2022-09-28T06:41:13.716Z,82.19
2022-09-28T06:43:41.468Z,81.92
2022-09-28T06:46:27.364Z,81.90
2022-09-28T06:49:29.394Z,82.12
2022-09-28T06:52:15.099Z,81.69
2022-09-28T06:55:11.487Z,81.24
2022-09-28T06:57:43.239Z,81.38
2022-09-28T07:00:10.909Z,81.08
2022-09-28T07:02:37.940Z,80.55
2022-09-28T07:05:16.994Z,80.50
2022-09-28T07:08:06.323Z,80.29
2022-09-28T07:10:56.497Z,80.20
2022-09-28T07:13:50.787Z,80.46
2022-09-28T07:16:25.766Z,80.46
2022-09-28T07:18:54.106Z,80.13
2022-09-28T07:21:29.247Z,80.44
2022-09-28T07:24:00.134Z,79.91
2022-09-28T07:26:56.265Z,79.94
2022-09-28T07:29:35.874Z,79.38
2022-09-28T07:32:21.787Z,79.39
2022-09-28T07:34:59.108Z,79.41
2022-09-28T07:38:08.326Z,79.19
2022-09-28T07:40:55.295Z,78.71
2022-09-28T07:43:22.751Z,79.29
2022-09-28T07:45:54.323Z,79.02
2022-09-28T07:48:22.184Z,79.34
2022-09-28T07:51:21.387Z,78.98
2022-09-28T07:54:15.730Z,78.22
2022-09-28T07:57:01.223Z,77.99
2022-09-28T07:59:40.365Z,77.75
2022-09-28T08:02:25.924Z,77.55
2022-09-28T08:04:53.666Z,77.20
2022-09-28T08:07:23.879Z,76.99
2022-09-28T08:09:57.130Z,76.65
2022-09-28T08:12:26.550Z,76.54
2022-09-28T08:15:02.212Z,76.67
2022-09-28T08:17:52.736Z,76.22
2022-09-28T08:20:39.913Z,76.07
2022-09-28T08:23:09.114Z,76.16
2022-09-28T08:25:38.027Z,76.44
2022-09-28T08:28:07.628Z,76.65
2022-09-28T08:30:40.598Z,77.04
2022-09-28T08:33:25.942Z,76.64
2022-09-28T08:36:12.936Z,75.30
2022-09-28T08:38:58.541Z,75.07
2022-09-28T08:42:02.316Z,74.80
2022-09-28T08:44:57.356Z,74.65
2022-09-28T08:48:15.360Z,73.98
2022-09-28T08:51:11.071Z,73.65
2022-09-28T08:54:01.127Z,74.09
2022-09-28T08:56:44.974Z,73.93
2022-09-28T08:59:21.392Z,73.28
2022-09-28T09:02:00.526Z,72.26
2022-09-28T09:04:27.806Z,72.88
2022-09-28T09:07:18.573Z,73.04
2022-09-28T09:10:36.557Z,72.70
2022-09-28T09:13:38.476Z,72.37
2022-09-28T09:16:14.981Z,71.05
2022-09-28T09:20:01.192Z,71.20
2022-09-28T09:22:58.934Z,71.08
2022-09-28T09:25:55.099Z,70.30
2022-09-28T09:28:43.923Z,70.04
2022-09-28T09:31:11.255Z,70.10
2022-09-28T09:33:52.603Z,69.54
2022-09-28T09:37:13.651Z,69.31
2022-09-28T09:40:03.274Z,69.29
2022-09-28T09:43:01.542Z,69.15
2022-09-28T09:46:16.896Z,68.85
2022-09-28T09:49:20.840Z,68.15
2022-09-28T09:52:10.313Z,66.44
2022-09-28T09:54:46.547Z,66.24
2022-09-28T09:57:39.956Z,65.70
2022-09-28T10:00:17.655Z,65.68
2022-09-28T10:02:51.087Z,65.52
2022-09-28T10:05:31.073Z,65.16
2022-09-28T10:08:16.249Z,65.22
2022-09-28T10:10:53.761Z,65.19
2022-09-28T10:13:20.752Z,64.75
2022-09-28T10:15:49.143Z,64.67
2022-09-28T10:18:22.526Z,65.00
2022-09-28T10:21:28.959Z,65.20
2022-09-28T10:24:05.200Z,64.47
2022-09-28T10:26:39.402Z,64.27
2022-09-28T10:29:17.812Z,64.15
2022-09-28T10:31:48.973Z,62.57
2022-09-28T10:34:29.705Z,62.76
2022-09-28T10:37:03.559Z,62.16
2022-09-28T10:39:45.966Z,62.55
2022-09-28T10:42:19.303Z,62.87
2022-09-28T10:45:07.866Z,63.33
2022-09-28T10:47:37.090Z,63.01
2022-09-28T10:50:24.035Z,63.03
2022-09-28T10:53:12.796Z,63.07
2022-09-28T10:56:01.532Z,63.26
2022-09-28T10:58:42.123Z,63.12
2022-09-28T11:01:20.415Z,63.27
2022-09-28T11:04:02.627Z,63.44
2022-09-28T11:06:33.153Z,63.72
2022-09-28T11:09:03.088Z,63.98
2022-09-28T11:11:32.115Z,63.58
2022-09-28T11:14:03.947Z,63.30
2022-09-28T11:16:36.867Z,63.34
2022-09-28T11:19:25.463Z,63.50
2022-09-28T11:21:52.401Z,63.63
2022-09-28T11:24:25.669Z,63.01
2022-09-28T11:26:57.250Z,62.21
2022-09-28T11:29:47.091Z,61.91
2022-09-28T11:32:22.024Z,60.05
2022-09-28T11:35:16.765Z,59.49
2022-09-28T11:37:50.780Z,58.88
2022-09-28T11:40:37.949Z,58.85
2022-09-28T11:43:37.378Z,58.23
2022-09-28T11:46:17.050Z,58.41
2022-09-28T11:48:49.324Z,58.27
2022-09-28T11:51:27.478Z,59.02
2022-09-28T11:54:06.779Z,58.80
2022-09-28T11:56:41.934Z,59.38
2022-09-28T11:59:11.409Z,59.61
2022-09-28T12:02:01.199Z,59.92
2022-09-28T12:04:45.730Z,59.25
2022-09-28T12:07:24.325Z,58.95
2022-09-28T12:10:10.382Z,58.80
2022-09-28T12:12:46.303Z,58.90
2022-09-28T12:15:28.736Z,58.34
2022-09-28T12:18:12.390Z,57.99
2022-09-28T12:20:46.444Z,57.45
2022-09-28T12:23:24.484Z,57.86
2022-09-28T12:26:04.817Z,58.61
2022-09-28T12:28:53.698Z,59.28
2022-09-28T12:31:28.167Z,58.98
2022-09-28T12:33:55.022Z,59.16
2022-09-28T12:36:47.634Z,59.29
2022-09-28T12:39:57.413Z,59.72
2022-09-28T12:43:01.064Z,59.61
2022-09-28T12:45:53.177Z,59.88
2022-09-28T12:49:21.628Z,60.16
2022-09-28T12:51:42.086Z,60.03
2022-09-28T12:54:55.768Z,59.74
2022-09-28T12:57:34.513Z,58.45
2022-09-28T13:00:04.864Z,58.55
2022-09-28T13:02:37.381Z,58.56
2022-09-28T13:05:32.331Z,58.62
2022-09-28T13:08:13.926Z,59.12
2022-09-28T13:10:47.187Z,58.78
2022-09-28T13:13:16.784Z,59.19
2022-09-28T13:15:52.950Z,60.04
2022-09-28T13:18:35.531Z,60.21
2022-09-28T13:21:06.439Z,61.04
2022-09-28T13:23:44.135Z,61.44
2022-09-28T13:26:17.558Z,61.79
2022-09-28T13:28:47.234Z,62.45
2022-09-28T13:31:21.143Z,62.55
2022-09-28T13:33:50.599Z,62.89
2022-09-28T13:36:29.067Z,62.42
2022-09-28T13:38:59.801Z,62.76
2022-09-28T13:41:50.993Z,63.67
2022-09-28T13:44:32.246Z,64.64
2022-09-28T13:47:18.799Z,64.36
2022-09-28T13:50:14.867Z,63.96
2022-09-28T13:53:07.812Z,63.10
2022-09-28T13:56:00.796Z,62.43
2022-09-28T13:58:36.823Z,61.63
2022-09-28T14:01:16.263Z,61.02
2022-09-28T14:04:11.787Z,60.22
2022-09-28T14:06:44.500Z,59.93
2022-09-28T14:09:41.272Z,60.08
2022-09-28T14:12:34.380Z,59.14
2022-09-28T14:15:02.705Z,58.89
2022-09-28T14:17:50.330Z,58.14
2022-09-28T14:20:20.040Z,57.84
2022-09-28T14:23:01.351Z,58.15
2022-09-28T14:25:32.138Z,58.73
2022-09-28T14:28:29.631Z,58.79
2022-09-28T14:30:59.783Z,58.75
2022-09-28T14:33:32.728Z,59.18
2022-09-28T14:36:07.098Z,58.43
2022-09-28T14:39:05.961Z,58.30
2022-09-28T14:41:34.787Z,58.46
2022-09-28T14:44:03.103Z,58.63
2022-09-28T14:46:33.627Z,58.86
2022-09-28T14:49:25.466Z,58.54
2022-09-28T14:51:56.023Z,58.26
2022-09-28T14:54:26.703Z,58.49
2022-09-28T14:56:53.463Z,58.48
2022-09-28T14:59:37.923Z,58.22
2022-09-28T15:02:26.278Z,58.48
2022-09-28T15:05:02.757Z,58.12
2022-09-28T15:07:43.596Z,58.33
2022-09-28T15:10:33.447Z,58.76
2022-09-28T15:13:07.050Z,58.87
2022-09-28T15:15:40.447Z,58.90
2022-09-28T15:18:19.311Z,59.35
2022-09-28T15:20:50.270Z,59.17
2022-09-28T15:23:37.594Z,58.77
2022-09-28T15:26:09.197Z,58.97
2022-09-28T15:28:43.932Z,58.77
2022-09-28T15:31:18.552Z,58.98
2022-09-28T15:34:04.181Z,59.09
2022-09-28T15:36:46.667Z,58.59
2022-09-28T15:39:28.759Z,58.72
2022-09-28T15:41:55.969Z,58.84
2022-09-28T15:44:37.189Z,59.23
2022-09-28T15:47:16.674Z,59.49
2022-09-28T15:50:01.395Z,59.15
2022-09-28T15:52:40.251Z,59.28
2022-09-28T15:55:22.397Z,59.60
2022-09-28T15:57:49.990Z,59.84
2022-09-28T16:00:31.674Z,60.10
2022-09-28T16:03:18.081Z,60.02
2022-09-28T16:05:52.568Z,59.91
2022-09-28T16:08:24.753Z,59.47
2022-09-28T16:11:07.092Z,59.80
2022-09-28T16:13:35.054Z,60.14
2022-09-28T16:16:01.922Z,60.42
2022-09-28T16:18:31.284Z,60.52
2022-09-28T16:21:26.782Z,60.53
2022-09-28T16:23:56.002Z,60.57
2022-09-28T16:26:39.129Z,60.80
2022-09-28T16:29:32.793Z,61.03
2022-09-28T16:32:25.167Z,60.87
2022-09-28T16:35:07.848Z,61.10
2022-09-28T16:37:35.113Z,61.49
2022-09-28T16:40:02.406Z,61.42
2022-09-28T16:42:29.738Z,61.43
2022-09-28T16:44:56.779Z,61.50
2022-09-28T16:47:24.194Z,61.65
2022-09-28T16:49:51.882Z,61.36
2022-09-28T16:52:38.700Z,61.59
2022-09-28T16:55:38.798Z,61.61
2022-09-28T16:58:04.839Z,61.57
2022-09-28T17:00:32.608Z,61.83
2022-09-28T17:02:59.866Z,62.01
2022-09-28T17:05:26.802Z,62.35
2022-09-28T17:08:01.527Z,62.39
2022-09-28T17:10:55.703Z,62.73
2022-09-28T17:13:34.311Z,62.94
2022-09-28T17:16:04.586Z,63.04
2022-09-28T17:18:32.336Z,63.15
2022-09-28T17:21:03.615Z,63.18
2022-09-28T17:23:30.935Z,63.18
2022-09-28T17:25:59.820Z,63.24
2022-09-28T17:28:32.710Z,62.94
2022-09-28T17:30:59.628Z,62.52
2022-09-28T17:33:26.543Z,62.80
2022-09-28T17:36:00.372Z,63.06
2022-09-28T17:38:28.162Z,63.19
2022-09-28T17:40:55.190Z,63.34
2022-09-28T17:43:22.707Z,63.59
2022-09-28T17:45:50.896Z,63.82
2022-09-28T17:48:23.115Z,64.00
2022-09-28T17:50:50.850Z,64.13
2022-09-28T17:53:17.728Z,64.39
2022-09-28T17:55:44.570Z,64.68
2022-09-28T17:58:22.432Z,64.64
2022-09-28T18:00:51.651Z,64.87
2022-09-28T18:03:23.422Z,65.36
2022-09-28T18:05:59.482Z,65.31
2022-09-28T18:08:26.238Z,65.52
2022-09-28T18:10:54.964Z,65.73
2022-09-28T18:13:21.871Z,66.27
2022-09-28T18:15:51.599Z,66.51
2022-09-28T18:18:18.836Z,66.84
2022-09-28T18:20:46.215Z,67.33
2022-09-28T18:23:13.147Z,67.64
2022-09-28T18:25:44.743Z,68.23
2022-09-28T18:28:15.506Z,68.77
2022-09-28T18:30:44.956Z,69.05
2022-09-28T18:33:13.816Z,69.31
2022-09-28T18:35:41.565Z,69.73
2022-09-28T18:38:08.627Z,69.94
2022-09-28T18:40:36.856Z,70.12
2022-09-28T18:43:04.139Z,70.37
2022-09-28T18:45:31.818Z,70.68
2022-09-28T18:48:00.068Z,70.81
2022-09-28T18:50:27.125Z,70.70
2022-09-28T18:52:54.330Z,70.90
2022-09-28T18:55:21.411Z,71.35
2022-09-28T18:57:48.565Z,71.55
2022-09-28T19:00:15.644Z,71.91
2022-09-28T19:02:42.673Z,72.53
2022-09-28T19:05:09.950Z,72.70
2022-09-28T19:07:36.907Z,73.09
2022-09-28T19:10:04.511Z,73.15
2022-09-28T19:12:32.559Z,73.34
2022-09-28T19:15:00.029Z,73.55
2022-09-28T19:17:26.932Z,73.74
2022-09-28T19:19:53.804Z,73.95
2022-09-28T19:22:20.981Z,74.39
2022-09-28T19:24:47.841Z,74.46
2022-09-28T19:27:14.829Z,74.24
2022-09-28T19:29:41.667Z,74.26
2022-09-28T19:32:08.482Z,74.54
2022-09-28T19:34:35.630Z,74.53
2022-09-28T19:37:04.179Z,74.36
2022-09-28T19:39:31.279Z,74.09
2022-09-28T19:42:02.486Z,74.01
2022-09-28T19:44:31.547Z,74.06
2022-09-28T19:47:10.303Z,74.05
2022-09-28T19:49:40.214Z,74.12
2022-09-28T19:52:23.229Z,73.96
2022-09-28T19:54:57.410Z,74.20
2022-09-28T19:57:34.101Z,73.93
2022-09-28T20:00:03.484Z,73.65
2022-09-28T20:02:34.955Z,73.53
2022-09-28T20:05:02.133Z,73.39
2022-09-28T20:07:33.182Z,73.65
2022-09-28T20:10:00.344Z,73.68
2022-09-28T20:12:27.165Z,73.68
2022-09-28T20:14:54.548Z,73.80
2022-09-28T20:17:22.195Z,73.76
2022-09-28T20:19:51.950Z,73.70
2022-09-28T20:22:20.127Z,73.72
2022-09-28T20:24:47.376Z,73.42
2022-09-28T20:27:14.368Z,73.29
2022-09-28T20:29:43.186Z,73.34
2022-09-28T20:32:11.933Z,73.41
2022-09-28T20:34:38.885Z,73.54
2022-09-28T20:37:05.820Z,73.43
2022-09-28T20:39:32.603Z,73.30
2022-09-28T20:41:59.599Z,73.34
2022-09-28T20:44:26.647Z,73.35
2022-09-28T20:46:53.633Z,73.33
2022-09-28T20:49:20.522Z,73.44
2022-09-28T20:51:47.497Z,73.37
2022-09-28T20:54:14.331Z,73.60
2022-09-28T20:56:41.338Z,73.85
2022-09-28T20:59:11.608Z,73.89
2022-09-28T21:01:38.505Z,74.06
2022-09-28T21:04:07.639Z,74.16
2022-09-28T21:06:40.488Z,74.21
2022-09-28T21:09:09.728Z,74.51
2022-09-28T21:11:36.977Z,74.64
2022-09-28T21:14:07.258Z,74.73
2022-09-28T21:16:35.381Z,75.03
2022-09-28T21:19:03.557Z,75.08
2022-09-28T21:21:30.797Z,74.90
2022-09-28T21:24:08.923Z,75.03
2022-09-28T21:26:36.424Z,75.08
2022-09-28T21:29:08.141Z,75.15
2022-09-28T21:31:55.882Z,75.07
2022-09-28T21:34:29.502Z,75.11
2022-09-28T21:36:56.847Z,74.98
2022-09-28T21:39:23.872Z,74.92
2022-09-28T21:41:50.791Z,75.00
2022-09-28T21:44:17.646Z,75.33
2022-09-28T21:46:44.578Z,75.39
2022-09-28T21:49:13.675Z,75.61
2022-09-28T21:51:40.626Z,75.56
2022-09-28T21:54:08.528Z,75.76
2022-09-28T21:56:35.455Z,75.66
2022-09-28T21:59:02.521Z,75.84
2022-09-28T22:01:29.506Z,76.23
2022-09-28T22:03:57.411Z,76.22
2022-09-28T22:06:30.375Z,76.15
2022-09-28T22:08:57.955Z,76.19
2022-09-28T22:11:28.470Z,76.22
2022-09-28T22:13:58.179Z,76.13
2022-09-28T22:16:28.110Z,76.26
2022-09-28T22:18:55.145Z,76.06
2022-09-28T22:21:25.324Z,75.99
2022-09-28T22:23:53.037Z,75.78
2022-09-28T22:26:23.615Z,75.79
2022-09-28T22:28:55.191Z,76.15
2022-09-28T22:31:25.021Z,76.43
2022-09-28T22:33:51.968Z,76.36
2022-09-28T22:36:20.161Z,76.48
2022-09-28T22:38:48.200Z,76.45
2022-09-28T22:41:17.140Z,76.41
2022-09-28T22:43:44.673Z,76.92
2022-09-28T22:46:14.992Z,77.11
2022-09-28T22:48:44.570Z,76.84
2022-09-28T22:51:11.319Z,77.22
2022-09-28T22:53:38.490Z,77.32
2022-09-28T22:56:06.829Z,77.17
2022-09-28T22:58:34.913Z,76.99
2022-09-28T23:01:13.262Z,77.33
2022-09-28T23:03:42.354Z,77.42
2022-09-28T23:06:11.295Z,77.50
2022-09-28T23:08:39.122Z,77.76
2022-09-28T23:11:06.952Z,77.44
2022-09-28T23:13:35.214Z,77.36
2022-09-28T23:16:11.770Z,77.60
2022-09-28T23:18:42.559Z,77.68
2022-09-28T23:21:13.259Z,77.71
2022-09-28T23:23:39.953Z,77.98
2022-09-28T23:26:18.533Z,77.87
2022-09-28T23:28:46.208Z,77.86
2022-09-28T23:31:19.458Z,77.95
2022-09-28T23:33:46.804Z,77.76
2022-09-28T23:36:14.012Z,77.74
2022-09-28T23:38:41.782Z,78.07
2022-09-28T23:41:08.986Z,78.27
2022-09-28T23:43:36.996Z,78.37
2022-09-28T23:46:04.691Z,78.52
2022-09-28T23:48:32.014Z,78.17
2022-09-28T23:50:59.155Z,77.92
2022-09-28T23:53:26.520Z,78.46
2022-09-28T23:55:54.039Z,78.71
2022-09-28T23:58:21.081Z,78.76
